sensor_id;sensor_type;location;lat;lon;timestamp;P1;durP1;ratioP1;P2;durP2;ratioP2
66179;SDS011;52986;44.028;20.466;2023-05-09T00:01:24;31.38;;;14.43;;
66179;SDS011;52986;44.028;20.466;2023-05-09T00:03:53;29.65;;;13.57;;
66179;SDS011;52986;44.028;20.466;2023-05-09T00:06:19;29.10;;;12.82;;
66179;SDS011;52986;44.028;20.466;2023-05-09T00:08:45;30.25;;;13.55;;
66179;SDS011;52986;44.028;20.466;2023-05-09T00:11:11;30.52;;;13.95;;
66179;SDS011;52986;44.028;20.466;2023-05-09T00:13:36;30.70;;;13.98;;
66179;SDS011;52986;44.028;20.466;2023-05-09T00:16:02;32.15;;;14.60;;
66179;SDS011;52986;44.028;20.466;2023-05-09T00:18:29;33.17;;;14.95;;
66179;SDS011;52986;44.028;20.466;2023-05-09T00:20:55;34.85;;;16.17;;
66179;SDS011;52986;44.028;20.466;2023-05-09T00:23:21;38.13;;;17.13;;
66179;SDS011;52986;44.028;20.466;2023-05-09T00:25:47;37.60;;;17.15;;
66179;SDS011;52986;44.028;20.466;2023-05-09T00:28:12;44.03;;;19.23;;
66179;SDS011;52986;44.028;20.466;2023-05-09T00:30:38;44.42;;;19.85;;
66179;SDS011;52986;44.028;20.466;2023-05-09T00:33:03;47.38;;;21.98;;
66179;SDS011;52986;44.028;20.466;2023-05-09T00:35:28;46.30;;;21.27;;
66179;SDS011;52986;44.028;20.466;2023-05-09T00:37:56;46.88;;;21.15;;
66179;SDS011;52986;44.028;20.466;2023-05-09T00:40:21;49.55;;;22.20;;
66179;SDS011;52986;44.028;20.466;2023-05-09T00:42:47;52.50;;;22.73;;
66179;SDS011;52986;44.028;20.466;2023-05-09T00:45:12;50.70;;;21.52;;
66179;SDS011;52986;44.028;20.466;2023-05-09T00:47:37;39.08;;;17.80;;
66179;SDS011;52986;44.028;20.466;2023-05-09T00:50:03;37.60;;;17.30;;
66179;SDS011;52986;44.028;20.466;2023-05-09T00:52:29;37.50;;;16.92;;
66179;SDS011;52986;44.028;20.466;2023-05-09T00:54:57;39.75;;;17.90;;
66179;SDS011;52986;44.028;20.466;2023-05-09T00:57:22;41.97;;;19.17;;
66179;SDS011;52986;44.028;20.466;2023-05-09T00:59:48;38.45;;;16.88;;
66179;SDS011;52986;44.028;20.466;2023-05-09T01:02:16;38.85;;;18.13;;
66179;SDS011;52986;44.028;20.466;2023-05-09T01:04:43;42.17;;;18.33;;
66179;SDS011;52986;44.028;20.466;2023-05-09T01:09:46;43.97;;;19.33;;
66179;SDS011;52986;44.028;20.466;2023-05-09T01:15:17;40.17;;;18.52;;
66179;SDS011;52986;44.028;20.466;2023-05-09T01:20:41;41.40;;;18.88;;
66179;SDS011;52986;44.028;20.466;2023-05-09T01:26:18;41.55;;;19.33;;
66179;SDS011;52986;44.028;20.466;2023-05-09T01:31:16;43.92;;;19.65;;
66179;SDS011;52986;44.028;20.466;2023-05-09T01:33:41;42.45;;;19.15;;
66179;SDS011;52986;44.028;20.466;2023-05-09T01:36:15;38.25;;;17.58;;
66179;SDS011;52986;44.028;20.466;2023-05-09T01:38:43;37.55;;;16.52;;
66179;SDS011;52986;44.028;20.466;2023-05-09T01:41:08;38.33;;;16.83;;
66179;SDS011;52986;44.028;20.466;2023-05-09T01:43:37;36.30;;;16.13;;
66179;SDS011;52986;44.028;20.466;2023-05-09T01:46:04;37.55;;;16.45;;
66179;SDS011;52986;44.028;20.466;2023-05-09T01:48:32;35.83;;;15.70;;
66179;SDS011;52986;44.028;20.466;2023-05-09T01:51:00;35.45;;;16.20;;
66179;SDS011;52986;44.028;20.466;2023-05-09T01:53:27;35.30;;;15.15;;
66179;SDS011;52986;44.028;20.466;2023-05-09T01:55:54;35.92;;;16.40;;
66179;SDS011;52986;44.028;20.466;2023-05-09T01:58:22;35.90;;;16.23;;
66179;SDS011;52986;44.028;20.466;2023-05-09T02:00:49;36.55;;;17.45;;
66179;SDS011;52986;44.028;20.466;2023-05-09T02:03:15;32.17;;;15.30;;
66179;SDS011;52986;44.028;20.466;2023-05-09T02:05:41;33.63;;;15.20;;
66179;SDS011;52986;44.028;20.466;2023-05-09T02:08:07;38.88;;;16.45;;
66179;SDS011;52986;44.028;20.466;2023-05-09T02:10:33;37.90;;;16.45;;
66179;SDS011;52986;44.028;20.466;2023-05-09T02:12:59;36.45;;;17.10;;
66179;SDS011;52986;44.028;20.466;2023-05-09T02:15:25;35.95;;;16.30;;
66179;SDS011;52986;44.028;20.466;2023-05-09T02:17:51;35.60;;;15.60;;
66179;SDS011;52986;44.028;20.466;2023-05-09T02:20:17;36.42;;;16.45;;
66179;SDS011;52986;44.028;20.466;2023-05-09T02:22:42;37.00;;;16.65;;
66179;SDS011;52986;44.028;20.466;2023-05-09T02:25:09;33.90;;;15.07;;
66179;SDS011;52986;44.028;20.466;2023-05-09T02:27:38;34.78;;;15.75;;
66179;SDS011;52986;44.028;20.466;2023-05-09T02:30:05;32.30;;;14.70;;
66179;SDS011;52986;44.028;20.466;2023-05-09T02:32:35;33.53;;;14.60;;
66179;SDS011;52986;44.028;20.466;2023-05-09T02:35:02;30.80;;;14.38;;
66179;SDS011;52986;44.028;20.466;2023-05-09T02:37:30;28.90;;;13.80;;
66179;SDS011;52986;44.028;20.466;2023-05-09T02:39:55;31.13;;;14.07;;
66179;SDS011;52986;44.028;20.466;2023-05-09T02:42:21;32.03;;;13.75;;
66179;SDS011;52986;44.028;20.466;2023-05-09T02:47:20;28.58;;;13.35;;
66179;SDS011;52986;44.028;20.466;2023-05-09T02:49:46;28.10;;;12.85;;
66179;SDS011;52986;44.028;20.466;2023-05-09T02:52:12;29.52;;;13.57;;
66179;SDS011;52986;44.028;20.466;2023-05-09T02:54:40;30.40;;;14.30;;
66179;SDS011;52986;44.028;20.466;2023-05-09T02:57:06;28.98;;;12.65;;
66179;SDS011;52986;44.028;20.466;2023-05-09T02:59:31;29.17;;;14.05;;
66179;SDS011;52986;44.028;20.466;2023-05-09T03:01:57;30.27;;;14.30;;
66179;SDS011;52986;44.028;20.466;2023-05-09T03:04:22;30.15;;;13.63;;
66179;SDS011;52986;44.028;20.466;2023-05-09T03:06:50;29.23;;;13.60;;
66179;SDS011;52986;44.028;20.466;2023-05-09T03:09:16;29.10;;;12.85;;
66179;SDS011;52986;44.028;20.466;2023-05-09T03:11:41;30.27;;;13.75;;
66179;SDS011;52986;44.028;20.466;2023-05-09T03:14:06;28.38;;;13.18;;
66179;SDS011;52986;44.028;20.466;2023-05-09T03:16:37;27.52;;;12.48;;
66179;SDS011;52986;44.028;20.466;2023-05-09T03:19:02;26.30;;;12.85;;
66179;SDS011;52986;44.028;20.466;2023-05-09T03:21:28;28.92;;;13.35;;
66179;SDS011;52986;44.028;20.466;2023-05-09T03:23:53;29.27;;;12.40;;
66179;SDS011;52986;44.028;20.466;2023-05-09T03:26:19;28.70;;;12.88;;
66179;SDS011;52986;44.028;20.466;2023-05-09T03:28:45;27.00;;;13.07;;
66179;SDS011;52986;44.028;20.466;2023-05-09T03:31:10;26.58;;;12.80;;
66179;SDS011;52986;44.028;20.466;2023-05-09T03:33:36;28.45;;;12.13;;
66179;SDS011;52986;44.028;20.466;2023-05-09T03:36:01;22.48;;;9.98;;
66179;SDS011;52986;44.028;20.466;2023-05-09T03:38:26;19.98;;;9.20;;
66179;SDS011;52986;44.028;20.466;2023-05-09T03:40:52;18.60;;;9.30;;
66179;SDS011;52986;44.028;20.466;2023-05-09T03:43:17;20.95;;;9.30;;
66179;SDS011;52986;44.028;20.466;2023-05-09T03:45:43;19.85;;;9.95;;
66179;SDS011;52986;44.028;20.466;2023-05-09T03:48:08;19.73;;;9.30;;
66179;SDS011;52986;44.028;20.466;2023-05-09T03:50:35;20.73;;;9.05;;
66179;SDS011;52986;44.028;20.466;2023-05-09T03:53:01;18.75;;;9.25;;
66179;SDS011;52986;44.028;20.466;2023-05-09T03:55:26;23.92;;;9.90;;
66179;SDS011;52986;44.028;20.466;2023-05-09T03:57:52;20.05;;;9.00;;
66179;SDS011;52986;44.028;20.466;2023-05-09T04:00:18;18.67;;;8.77;;
66179;SDS011;52986;44.028;20.466;2023-05-09T04:02:44;16.67;;;8.40;;
66179;SDS011;52986;44.028;20.466;2023-05-09T04:05:09;17.00;;;7.95;;
66179;SDS011;52986;44.028;20.466;2023-05-09T04:07:35;19.48;;;9.07;;
66179;SDS011;52986;44.028;20.466;2023-05-09T04:10:01;17.95;;;8.50;;
66179;SDS011;52986;44.028;20.466;2023-05-09T04:12:26;18.95;;;8.55;;
66179;SDS011;52986;44.028;20.466;2023-05-09T04:14:51;18.40;;;8.63;;
66179;SDS011;52986;44.028;20.466;2023-05-09T04:17:17;16.58;;;8.43;;
66179;SDS011;52986;44.028;20.466;2023-05-09T04:19:42;17.58;;;8.68;;
66179;SDS011;52986;44.028;20.466;2023-05-09T04:22:08;18.80;;;8.05;;
66179;SDS011;52986;44.028;20.466;2023-05-09T04:24:33;20.02;;;9.30;;
66179;SDS011;52986;44.028;20.466;2023-05-09T04:26:58;18.45;;;9.20;;
66179;SDS011;52986;44.028;20.466;2023-05-09T04:29:24;23.70;;;9.20;;
66179;SDS011;52986;44.028;20.466;2023-05-09T04:31:50;17.77;;;8.30;;
66179;SDS011;52986;44.028;20.466;2023-05-09T04:34:15;17.38;;;8.68;;
66179;SDS011;52986;44.028;20.466;2023-05-09T04:36:41;18.10;;;8.73;;
66179;SDS011;52986;44.028;20.466;2023-05-09T04:39:06;17.10;;;8.82;;
66179;SDS011;52986;44.028;20.466;2023-05-09T04:41:32;16.50;;;8.18;;
66179;SDS011;52986;44.028;20.466;2023-05-09T04:43:58;16.95;;;8.27;;
66179;SDS011;52986;44.028;20.466;2023-05-09T04:46:23;20.63;;;8.10;;
66179;SDS011;52986;44.028;20.466;2023-05-09T04:48:49;20.40;;;8.45;;
66179;SDS011;52986;44.028;20.466;2023-05-09T04:51:14;18.40;;;8.32;;
66179;SDS011;52986;44.028;20.466;2023-05-09T04:53:39;16.13;;;7.82;;
66179;SDS011;52986;44.028;20.466;2023-05-09T04:56:05;15.57;;;8.07;;
66179;SDS011;52986;44.028;20.466;2023-05-09T04:58:30;19.42;;;8.15;;
66179;SDS011;52986;44.028;20.466;2023-05-09T05:00:58;16.83;;;7.50;;
66179;SDS011;52986;44.028;20.466;2023-05-09T05:03:24;17.20;;;7.85;;
66179;SDS011;52986;44.028;20.466;2023-05-09T05:05:49;16.50;;;7.50;;
66179;SDS011;52986;44.028;20.466;2023-05-09T05:08:15;14.45;;;6.95;;
66179;SDS011;52986;44.028;20.466;2023-05-09T05:10:40;17.20;;;6.18;;
66179;SDS011;52986;44.028;20.466;2023-05-09T05:13:05;16.25;;;6.28;;
66179;SDS011;52986;44.028;20.466;2023-05-09T05:15:31;14.55;;;6.45;;
66179;SDS011;52986;44.028;20.466;2023-05-09T05:17:56;14.93;;;6.57;;
66179;SDS011;52986;44.028;20.466;2023-05-09T05:20:22;15.90;;;6.85;;
66179;SDS011;52986;44.028;20.466;2023-05-09T05:22:47;16.08;;;7.47;;
66179;SDS011;52986;44.028;20.466;2023-05-09T05:25:12;16.85;;;8.13;;
66179;SDS011;52986;44.028;20.466;2023-05-09T05:27:38;19.40;;;10.88;;
66179;SDS011;52986;44.028;20.466;2023-05-09T05:30:04;17.27;;;8.07;;
66179;SDS011;52986;44.028;20.466;2023-05-09T05:32:29;19.55;;;8.20;;
66179;SDS011;52986;44.028;20.466;2023-05-09T05:34:55;19.23;;;9.98;;
66179;SDS011;52986;44.028;20.466;2023-05-09T05:37:21;14.35;;;7.82;;
66179;SDS011;52986;44.028;20.466;2023-05-09T05:39:46;15.02;;;7.60;;
66179;SDS011;52986;44.028;20.466;2023-05-09T05:42:12;15.90;;;7.47;;
66179;SDS011;52986;44.028;20.466;2023-05-09T05:44:37;14.07;;;7.07;;
66179;SDS011;52986;44.028;20.466;2023-05-09T05:47:03;17.42;;;7.60;;
66179;SDS011;52986;44.028;20.466;2023-05-09T05:49:28;20.83;;;6.97;;
66179;SDS011;52986;44.028;20.466;2023-05-09T05:51:53;15.03;;;7.20;;
66179;SDS011;52986;44.028;20.466;2023-05-09T05:54:19;21.02;;;11.85;;
66179;SDS011;52986;44.028;20.466;2023-05-09T05:56:44;15.30;;;6.88;;
66179;SDS011;52986;44.028;20.466;2023-05-09T05:59:09;17.60;;;6.53;;
66179;SDS011;52986;44.028;20.466;2023-05-09T06:01:35;15.00;;;6.68;;
66179;SDS011;52986;44.028;20.466;2023-05-09T06:04:00;15.35;;;6.07;;
66179;SDS011;52986;44.028;20.466;2023-05-09T06:06:26;14.15;;;6.30;;
66179;SDS011;52986;44.028;20.466;2023-05-09T06:08:52;16.33;;;6.30;;
66179;SDS011;52986;44.028;20.466;2023-05-09T06:11:17;12.80;;;5.60;;
66179;SDS011;52986;44.028;20.466;2023-05-09T06:13:43;13.43;;;5.45;;
66179;SDS011;52986;44.028;20.466;2023-05-09T06:16:09;14.15;;;5.57;;
66179;SDS011;52986;44.028;20.466;2023-05-09T06:18:35;11.15;;;5.75;;
66179;SDS011;52986;44.028;20.466;2023-05-09T06:21:04;15.10;;;5.32;;
66179;SDS011;52986;44.028;20.466;2023-05-09T06:23:30;14.48;;;6.70;;
66179;SDS011;52986;44.028;20.466;2023-05-09T06:25:56;17.00;;;6.90;;
66179;SDS011;52986;44.028;20.466;2023-05-09T06:28:21;16.20;;;6.38;;
66179;SDS011;52986;44.028;20.466;2023-05-09T06:30:47;13.38;;;6.53;;
66179;SDS011;52986;44.028;20.466;2023-05-09T06:33:12;12.43;;;5.90;;
66179;SDS011;52986;44.028;20.466;2023-05-09T06:35:37;14.80;;;5.82;;
66179;SDS011;52986;44.028;20.466;2023-05-09T06:38:03;24.25;;;6.50;;
66179;SDS011;52986;44.028;20.466;2023-05-09T06:40:28;12.50;;;5.68;;
66179;SDS011;52986;44.028;20.466;2023-05-09T06:42:53;17.33;;;5.50;;
66179;SDS011;52986;44.028;20.466;2023-05-09T06:45:19;13.15;;;5.07;;
66179;SDS011;52986;44.028;20.466;2023-05-09T06:47:44;12.48;;;5.75;;
66179;SDS011;52986;44.028;20.466;2023-05-09T06:50:10;12.37;;;5.20;;
66179;SDS011;52986;44.028;20.466;2023-05-09T06:52:35;12.93;;;5.38;;
66179;SDS011;52986;44.028;20.466;2023-05-09T06:55:01;13.30;;;5.40;;
66179;SDS011;52986;44.028;20.466;2023-05-09T06:57:26;13.85;;;5.90;;
66179;SDS011;52986;44.028;20.466;2023-05-09T06:59:52;13.45;;;5.72;;
66179;SDS011;52986;44.028;20.466;2023-05-09T07:02:17;13.02;;;5.75;;
66179;SDS011;52986;44.028;20.466;2023-05-09T07:04:42;16.00;;;5.50;;
66179;SDS011;52986;44.028;20.466;2023-05-09T07:07:08;13.05;;;5.45;;
66179;SDS011;52986;44.028;20.466;2023-05-09T07:09:33;11.23;;;4.90;;
66179;SDS011;52986;44.028;20.466;2023-05-09T07:11:59;14.10;;;5.87;;
66179;SDS011;52986;44.028;20.466;2023-05-09T07:14:25;14.30;;;6.32;;
66179;SDS011;52986;44.028;20.466;2023-05-09T07:16:50;12.68;;;6.00;;
66179;SDS011;52986;44.028;20.466;2023-05-09T07:19:16;14.27;;;5.75;;
66179;SDS011;52986;44.028;20.466;2023-05-09T07:21:41;11.65;;;5.93;;
66179;SDS011;52986;44.028;20.466;2023-05-09T07:24:07;13.25;;;5.65;;
66179;SDS011;52986;44.028;20.466;2023-05-09T07:26:33;15.95;;;6.38;;
66179;SDS011;52986;44.028;20.466;2023-05-09T07:28:59;12.80;;;6.25;;
66179;SDS011;52986;44.028;20.466;2023-05-09T07:31:25;12.27;;;5.63;;
66179;SDS011;52986;44.028;20.466;2023-05-09T07:33:50;11.80;;;5.25;;
66179;SDS011;52986;44.028;20.466;2023-05-09T07:36:16;11.80;;;5.93;;
66179;SDS011;52986;44.028;20.466;2023-05-09T07:38:41;12.10;;;6.05;;
66179;SDS011;52986;44.028;20.466;2023-05-09T07:41:06;13.32;;;6.65;;
66179;SDS011;52986;44.028;20.466;2023-05-09T07:43:32;14.05;;;6.60;;
66179;SDS011;52986;44.028;20.466;2023-05-09T07:45:57;14.15;;;6.70;;
66179;SDS011;52986;44.028;20.466;2023-05-09T07:48:23;12.57;;;6.00;;
66179;SDS011;52986;44.028;20.466;2023-05-09T07:50:48;13.05;;;6.20;;
66179;SDS011;52986;44.028;20.466;2023-05-09T07:53:14;13.30;;;6.68;;
66179;SDS011;52986;44.028;20.466;2023-05-09T07:55:39;14.07;;;6.43;;
66179;SDS011;52986;44.028;20.466;2023-05-09T07:58:05;13.80;;;6.47;;
66179;SDS011;52986;44.028;20.466;2023-05-09T08:00:30;14.63;;;6.32;;
66179;SDS011;52986;44.028;20.466;2023-05-09T08:02:55;11.52;;;5.75;;
66179;SDS011;52986;44.028;20.466;2023-05-09T08:05:21;12.82;;;5.78;;
66179;SDS011;52986;44.028;20.466;2023-05-09T08:07:46;11.90;;;5.47;;
66179;SDS011;52986;44.028;20.466;2023-05-09T08:10:12;13.32;;;5.63;;
66179;SDS011;52986;44.028;20.466;2023-05-09T08:12:37;12.80;;;6.10;;
66179;SDS011;52986;44.028;20.466;2023-05-09T08:15:03;12.65;;;5.57;;
66179;SDS011;52986;44.028;20.466;2023-05-09T08:17:29;12.43;;;6.13;;
66179;SDS011;52986;44.028;20.466;2023-05-09T08:19:54;11.35;;;6.07;;
66179;SDS011;52986;44.028;20.466;2023-05-09T08:22:20;13.38;;;6.68;;
66179;SDS011;52986;44.028;20.466;2023-05-09T08:24:45;15.95;;;7.18;;
66179;SDS011;52986;44.028;20.466;2023-05-09T08:27:14;13.65;;;7.32;;
66179;SDS011;52986;44.028;20.466;2023-05-09T08:29:40;14.25;;;7.78;;
66179;SDS011;52986;44.028;20.466;2023-05-09T08:32:05;15.98;;;7.55;;
66179;SDS011;52986;44.028;20.466;2023-05-09T08:34:34;15.52;;;7.50;;
66179;SDS011;52986;44.028;20.466;2023-05-09T08:37:00;14.38;;;8.30;;
66179;SDS011;52986;44.028;20.466;2023-05-09T08:39:25;16.38;;;7.60;;
66179;SDS011;52986;44.028;20.466;2023-05-09T08:41:52;14.75;;;7.70;;
66179;SDS011;52986;44.028;20.466;2023-05-09T08:44:27;15.55;;;7.32;;
66179;SDS011;52986;44.028;20.466;2023-05-09T08:47:11;15.10;;;7.80;;
66179;SDS011;52986;44.028;20.466;2023-05-09T08:49:57;14.82;;;7.63;;
66179;SDS011;52986;44.028;20.466;2023-05-09T08:52:27;18.05;;;6.97;;
66179;SDS011;52986;44.028;20.466;2023-05-09T08:54:58;13.10;;;6.63;;
66179;SDS011;52986;44.028;20.466;2023-05-09T08:57:29;13.88;;;7.35;;
66179;SDS011;52986;44.028;20.466;2023-05-09T08:59:56;18.10;;;7.07;;
66179;SDS011;52986;44.028;20.466;2023-05-09T09:02:22;15.77;;;7.18;;
66179;SDS011;52986;44.028;20.466;2023-05-09T09:04:48;14.80;;;6.90;;
66179;SDS011;52986;44.028;20.466;2023-05-09T09:07:14;15.00;;;7.60;;
66179;SDS011;52986;44.028;20.466;2023-05-09T09:09:43;13.80;;;6.38;;
66179;SDS011;52986;44.028;20.466;2023-05-09T09:12:10;12.65;;;5.85;;
66179;SDS011;52986;44.028;20.466;2023-05-09T09:14:37;14.38;;;6.18;;
66179;SDS011;52986;44.028;20.466;2023-05-09T09:17:06;13.95;;;5.75;;
66179;SDS011;52986;44.028;20.466;2023-05-09T09:19:36;12.70;;;5.60;;
66179;SDS011;52986;44.028;20.466;2023-05-09T09:22:04;13.95;;;5.85;;
66179;SDS011;52986;44.028;20.466;2023-05-09T09:24:31;13.25;;;5.45;;
66179;SDS011;52986;44.028;20.466;2023-05-09T09:27:00;14.50;;;5.40;;
66179;SDS011;52986;44.028;20.466;2023-05-09T09:29:29;12.70;;;5.18;;
66179;SDS011;52986;44.028;20.466;2023-05-09T09:31:55;11.68;;;4.80;;
66179;SDS011;52986;44.028;20.466;2023-05-09T09:34:21;14.80;;;5.63;;
66179;SDS011;52986;44.028;20.466;2023-05-09T09:36:48;14.43;;;5.30;;
66179;SDS011;52986;44.028;20.466;2023-05-09T09:39:13;13.55;;;4.95;;
66179;SDS011;52986;44.028;20.466;2023-05-09T09:41:39;11.30;;;4.80;;
66179;SDS011;52986;44.028;20.466;2023-05-09T09:44:05;14.23;;;5.18;;
66179;SDS011;52986;44.028;20.466;2023-05-09T09:46:39;13.00;;;5.70;;
66179;SDS011;52986;44.028;20.466;2023-05-09T09:49:11;13.82;;;5.80;;
66179;SDS011;52986;44.028;20.466;2023-05-09T09:51:38;12.23;;;5.22;;
66179;SDS011;52986;44.028;20.466;2023-05-09T09:54:08;12.52;;;6.07;;
66179;SDS011;52986;44.028;20.466;2023-05-09T09:56:41;14.02;;;5.80;;
66179;SDS011;52986;44.028;20.466;2023-05-09T09:59:09;13.13;;;6.13;;
66179;SDS011;52986;44.028;20.466;2023-05-09T10:01:55;10.52;;;5.30;;
66179;SDS011;52986;44.028;20.466;2023-05-09T10:04:22;11.68;;;5.65;;
66179;SDS011;52986;44.028;20.466;2023-05-09T10:06:52;12.07;;;5.32;;
66179;SDS011;52986;44.028;20.466;2023-05-09T10:09:25;13.30;;;6.35;;
66179;SDS011;52986;44.028;20.466;2023-05-09T10:11:52;10.70;;;4.78;;
66179;SDS011;52986;44.028;20.466;2023-05-09T10:14:18;10.90;;;5.22;;
66179;SDS011;52986;44.028;20.466;2023-05-09T10:16:48;10.75;;;4.60;;
66179;SDS011;52986;44.028;20.466;2023-05-09T10:19:18;11.23;;;4.50;;
66179;SDS011;52986;44.028;20.466;2023-05-09T10:21:50;12.95;;;4.80;;
66179;SDS011;52986;44.028;20.466;2023-05-09T10:26:55;9.75;;;4.63;;
66179;SDS011;52986;44.028;20.466;2023-05-09T10:29:28;12.07;;;5.25;;
66179;SDS011;52986;44.028;20.466;2023-05-09T10:31:57;12.25;;;5.25;;
66179;SDS011;52986;44.028;20.466;2023-05-09T10:34:24;13.38;;;5.38;;
66179;SDS011;52986;44.028;20.466;2023-05-09T10:36:51;10.13;;;5.18;;
66179;SDS011;52986;44.028;20.466;2023-05-09T10:39:17;12.05;;;5.07;;
66179;SDS011;52986;44.028;20.466;2023-05-09T10:41:43;10.82;;;5.20;;
66179;SDS011;52986;44.028;20.466;2023-05-09T10:44:13;11.02;;;5.22;;
66179;SDS011;52986;44.028;20.466;2023-05-09T10:46:39;11.38;;;5.43;;
66179;SDS011;52986;44.028;20.466;2023-05-09T10:49:05;10.27;;;4.72;;
66179;SDS011;52986;44.028;20.466;2023-05-09T10:51:31;11.02;;;5.47;;
66179;SDS011;52986;44.028;20.466;2023-05-09T10:53:57;10.82;;;4.82;;
66179;SDS011;52986;44.028;20.466;2023-05-09T10:56:32;11.00;;;4.95;;
66179;SDS011;52986;44.028;20.466;2023-05-09T10:58:59;10.27;;;4.82;;
66179;SDS011;52986;44.028;20.466;2023-05-09T11:01:28;10.13;;;5.00;;
66179;SDS011;52986;44.028;20.466;2023-05-09T11:03:56;10.13;;;4.78;;
66179;SDS011;52986;44.028;20.466;2023-05-09T11:06:40;11.63;;;4.57;;
66179;SDS011;52986;44.028;20.466;2023-05-09T11:09:25;11.98;;;5.13;;
66179;SDS011;52986;44.028;20.466;2023-05-09T11:12:07;11.35;;;5.70;;
66179;SDS011;52986;44.028;20.466;2023-05-09T11:14:38;10.32;;;5.13;;
66179;SDS011;52986;44.028;20.466;2023-05-09T11:17:09;11.07;;;5.32;;
66179;SDS011;52986;44.028;20.466;2023-05-09T11:22:14;10.68;;;5.40;;
66179;SDS011;52986;44.028;20.466;2023-05-09T11:24:49;10.90;;;5.28;;
66179;SDS011;52986;44.028;20.466;2023-05-09T11:27:20;10.27;;;5.18;;
66179;SDS011;52986;44.028;20.466;2023-05-09T11:32:31;11.05;;;5.05;;
66179;SDS011;52986;44.028;20.466;2023-05-09T11:35:05;10.38;;;5.18;;
66179;SDS011;52986;44.028;20.466;2023-05-09T11:37:33;14.40;;;5.47;;
66179;SDS011;52986;44.028;20.466;2023-05-09T11:40:08;10.82;;;4.78;;
66179;SDS011;52986;44.028;20.466;2023-05-09T11:42:36;10.98;;;4.70;;
66179;SDS011;52986;44.028;20.466;2023-05-09T11:45:06;9.88;;;4.90;;
66179;SDS011;52986;44.028;20.466;2023-05-09T11:47:34;9.85;;;4.63;;
66179;SDS011;52986;44.028;20.466;2023-05-09T11:50:00;10.05;;;4.25;;
66179;SDS011;52986;44.028;20.466;2023-05-09T11:52:26;12.18;;;4.80;;
66179;SDS011;52986;44.028;20.466;2023-05-09T11:54:56;9.23;;;4.30;;
66179;SDS011;52986;44.028;20.466;2023-05-09T11:57:22;11.02;;;4.43;;
66179;SDS011;52986;44.028;20.466;2023-05-09T11:59:48;11.32;;;4.50;;
66179;SDS011;52986;44.028;20.466;2023-05-09T12:02:13;11.52;;;4.05;;
66179;SDS011;52986;44.028;20.466;2023-05-09T12:04:39;11.15;;;4.88;;
66179;SDS011;52986;44.028;20.466;2023-05-09T12:07:05;9.57;;;4.18;;
66179;SDS011;52986;44.028;20.466;2023-05-09T12:09:31;9.60;;;4.07;;
66179;SDS011;52986;44.028;20.466;2023-05-09T12:11:58;8.52;;;3.60;;
66179;SDS011;52986;44.028;20.466;2023-05-09T12:14:32;10.82;;;4.40;;
66179;SDS011;52986;44.028;20.466;2023-05-09T12:16:58;8.48;;;3.53;;
66179;SDS011;52986;44.028;20.466;2023-05-09T12:19:24;10.55;;;3.78;;
66179;SDS011;52986;44.028;20.466;2023-05-09T12:22:01;15.85;;;4.70;;
66179;SDS011;52986;44.028;20.466;2023-05-09T12:24:29;14.32;;;4.22;;
66179;SDS011;52986;44.028;20.466;2023-05-09T12:26:56;8.40;;;3.38;;
66179;SDS011;52986;44.028;20.466;2023-05-09T12:29:22;8.88;;;3.50;;
66179;SDS011;52986;44.028;20.466;2023-05-09T12:31:49;9.60;;;3.13;;
66179;SDS011;52986;44.028;20.466;2023-05-09T12:34:16;8.38;;;3.42;;
66179;SDS011;52986;44.028;20.466;2023-05-09T12:36:45;9.05;;;3.50;;
66179;SDS011;52986;44.028;20.466;2023-05-09T12:39:15;8.95;;;3.08;;
66179;SDS011;52986;44.028;20.466;2023-05-09T12:41:45;7.03;;;3.05;;
66179;SDS011;52986;44.028;20.466;2023-05-09T12:44:19;8.25;;;3.30;;
66179;SDS011;52986;44.028;20.466;2023-05-09T12:46:59;6.82;;;2.83;;
66179;SDS011;52986;44.028;20.466;2023-05-09T12:49:26;6.55;;;2.92;;
66179;SDS011;52986;44.028;20.466;2023-05-09T12:51:52;8.23;;;3.10;;
66179;SDS011;52986;44.028;20.466;2023-05-09T12:54:22;8.13;;;3.28;;
66179;SDS011;52986;44.028;20.466;2023-05-09T12:56:49;6.88;;;2.97;;
66179;SDS011;52986;44.028;20.466;2023-05-09T12:59:19;7.68;;;3.40;;
66179;SDS011;52986;44.028;20.466;2023-05-09T13:01:50;9.43;;;3.63;;
66179;SDS011;52986;44.028;20.466;2023-05-09T13:04:18;8.45;;;3.10;;
66179;SDS011;52986;44.028;20.466;2023-05-09T13:06:47;7.53;;;2.95;;
66179;SDS011;52986;44.028;20.466;2023-05-09T13:09:17;7.15;;;2.83;;
66179;SDS011;52986;44.028;20.466;2023-05-09T13:11:44;6.80;;;3.03;;
66179;SDS011;52986;44.028;20.466;2023-05-09T13:14:10;8.15;;;3.10;;
66179;SDS011;52986;44.028;20.466;2023-05-09T13:16:35;8.48;;;3.00;;
66179;SDS011;52986;44.028;20.466;2023-05-09T13:19:01;7.15;;;2.90;;
66179;SDS011;52986;44.028;20.466;2023-05-09T13:21:26;10.45;;;3.10;;
66179;SDS011;52986;44.028;20.466;2023-05-09T13:23:52;7.55;;;3.13;;
66179;SDS011;52986;44.028;20.466;2023-05-09T13:26:18;6.35;;;2.83;;
66179;SDS011;52986;44.028;20.466;2023-05-09T13:28:43;7.85;;;3.08;;
66179;SDS011;52986;44.028;20.466;2023-05-09T13:31:09;7.30;;;2.95;;
66179;SDS011;52986;44.028;20.466;2023-05-09T13:33:34;6.57;;;2.75;;
66179;SDS011;52986;44.028;20.466;2023-05-09T13:36:00;8.80;;;2.60;;
66179;SDS011;52986;44.028;20.466;2023-05-09T13:38:25;7.15;;;2.58;;
66179;SDS011;52986;44.028;20.466;2023-05-09T13:40:54;7.82;;;2.92;;
66179;SDS011;52986;44.028;20.466;2023-05-09T13:43:20;7.15;;;2.75;;
66179;SDS011;52986;44.028;20.466;2023-05-09T13:45:45;6.82;;;2.50;;
66179;SDS011;52986;44.028;20.466;2023-05-09T13:48:10;7.13;;;2.35;;
66179;SDS011;52986;44.028;20.466;2023-05-09T13:50:36;6.68;;;2.40;;
66179;SDS011;52986;44.028;20.466;2023-05-09T13:53:01;6.33;;;2.40;;
66179;SDS011;52986;44.028;20.466;2023-05-09T13:55:27;6.65;;;2.63;;
66179;SDS011;52986;44.028;20.466;2023-05-09T13:57:53;5.93;;;2.40;;
66179;SDS011;52986;44.028;20.466;2023-05-09T14:00:19;6.35;;;2.40;;
66179;SDS011;52986;44.028;20.466;2023-05-09T14:02:45;6.97;;;2.55;;
66179;SDS011;52986;44.028;20.466;2023-05-09T14:05:10;7.07;;;2.67;;
66179;SDS011;52986;44.028;20.466;2023-05-09T14:07:35;5.57;;;2.25;;
66179;SDS011;52986;44.028;20.466;2023-05-09T14:10:01;5.13;;;2.22;;
66179;SDS011;52986;44.028;20.466;2023-05-09T14:12:28;5.43;;;2.28;;
66179;SDS011;52986;44.028;20.466;2023-05-09T14:14:53;6.50;;;2.47;;
66179;SDS011;52986;44.028;20.466;2023-05-09T14:17:18;5.88;;;2.50;;
66179;SDS011;52986;44.028;20.466;2023-05-09T14:19:44;7.15;;;2.40;;
66179;SDS011;52986;44.028;20.466;2023-05-09T14:22:09;6.50;;;2.60;;
66179;SDS011;52986;44.028;20.466;2023-05-09T14:24:35;6.82;;;2.35;;
66179;SDS011;52986;44.028;20.466;2023-05-09T14:27:00;5.60;;;2.20;;
66179;SDS011;52986;44.028;20.466;2023-05-09T14:29:26;5.78;;;2.05;;
66179;SDS011;52986;44.028;20.466;2023-05-09T14:31:51;5.13;;;2.20;;
66179;SDS011;52986;44.028;20.466;2023-05-09T14:34:17;6.80;;;2.22;;
66179;SDS011;52986;44.028;20.466;2023-05-09T14:36:43;6.40;;;2.28;;
66179;SDS011;52986;44.028;20.466;2023-05-09T14:39:08;5.47;;;2.20;;
66179;SDS011;52986;44.028;20.466;2023-05-09T14:41:34;4.80;;;2.10;;
66179;SDS011;52986;44.028;20.466;2023-05-09T14:43:59;7.18;;;2.10;;